createdAt,value
2022-09-25T00:01:26.893Z,16.20
2022-09-25T00:03:56.336Z,16.20
2022-09-25T00:06:26.463Z,16.20
2022-09-25T00:08:57.587Z,16.20
2022-09-25T00:11:28.419Z,16.20
2022-09-25T00:13:56.869Z,16.10
2022-09-25T00:16:30.631Z,16.10
2022-09-25T00:19:19.362Z,16.10
2022-09-25T00:21:52.904Z,16.10
2022-09-25T00:24:20.426Z,16.10
2022-09-25T00:26:49.524Z,16.10
2022-09-25T00:29:20.382Z,16.10
2022-09-25T00:31:47.299Z,16.10
2022-09-25T00:34:16.439Z,16.10
2022-09-25T00:36:43.320Z,16.00
2022-09-25T00:39:12.717Z,16.00
2022-09-25T00:41:42.100Z,16.00
2022-09-25T00:44:46.634Z,16.00
2022-09-25T00:47:19.346Z,15.90
2022-09-25T00:49:51.834Z,15.90
2022-09-25T00:52:18.965Z,15.90
2022-09-25T00:54:55.062Z,15.90
2022-09-25T00:57:28.001Z,15.90
2022-09-25T01:00:04.918Z,15.90
2022-09-25T01:02:39.666Z,15.90
2022-09-25T01:05:18.014Z,15.90
2022-09-25T01:07:48.199Z,15.80
2022-09-25T01:10:23.207Z,15.80
2022-09-25T01:12:51.444Z,15.80
2022-09-25T01:15:25.820Z,15.80
2022-09-25T01:17:56.423Z,15.80
2022-09-25T01:20:32.254Z,15.80
2022-09-25T01:23:38.146Z,15.70
2022-09-25T01:26:54.643Z,15.70
2022-09-25T01:29:42.494Z,15.70
2022-09-25T01:32:45.002Z,15.70
2022-09-25T01:35:49.979Z,15.60
2022-09-25T01:38:36.179Z,15.60
2022-09-25T01:41:39.342Z,15.50
2022-09-25T01:44:23.621Z,15.50
2022-09-25T01:46:53.611Z,15.50
2022-09-25T01:49:38.673Z,15.40
2022-09-25T01:52:14.153Z,15.40
2022-09-25T01:54:58.769Z,15.40
2022-09-25T01:57:44.504Z,15.40
2022-09-25T02:00:23.738Z,15.30
2022-09-25T02:03:09.132Z,15.40
2022-09-25T02:05:53.736Z,15.30
2022-09-25T02:08:35.763Z,15.40
2022-09-25T02:11:05.996Z,15.30
2022-09-25T02:13:49.942Z,15.40
2022-09-25T02:16:23.461Z,15.30
2022-09-25T02:19:11.677Z,15.30
2022-09-25T02:22:15.311Z,15.30
2022-09-25T02:24:59.155Z,15.30
2022-09-25T02:27:30.351Z,15.30
2022-09-25T02:30:01.427Z,15.30
2022-09-25T02:32:34.198Z,15.30
2022-09-25T02:35:03.843Z,15.30
2022-09-25T02:37:32.797Z,15.30
2022-09-25T02:40:02.351Z,15.20
2022-09-25T02:42:45.045Z,15.30
2022-09-25T02:45:51.340Z,15.20
2022-09-25T02:48:47.719Z,15.20
2022-09-25T02:51:35.359Z,15.20
2022-09-25T02:54:21.338Z,15.20
2022-09-25T02:57:17.751Z,15.10
2022-09-25T02:59:56.164Z,15.10
2022-09-25T03:02:24.689Z,15.10
2022-09-25T03:04:55.514Z,15.10
2022-09-25T03:07:22.895Z,15.10
2022-09-25T03:09:53.012Z,15.10
2022-09-25T03:12:22.511Z,15.00
2022-09-25T03:14:49.554Z,15.00
2022-09-25T03:17:23.161Z,15.00
2022-09-25T03:19:52.144Z,15.00
2022-09-25T03:22:21.236Z,15.00
2022-09-25T03:24:48.745Z,15.00
2022-09-25T03:27:15.585Z,14.90
2022-09-25T03:29:42.624Z,14.90
2022-09-25T03:32:10.221Z,14.90
2022-09-25T03:34:41.623Z,14.90
2022-09-25T03:37:08.441Z,14.80
2022-09-25T03:39:39.865Z,14.80
2022-09-25T03:42:09.707Z,14.80
2022-09-25T03:44:38.717Z,14.80
2022-09-25T03:47:05.642Z,14.70
2022-09-25T03:49:32.454Z,14.70
2022-09-25T03:52:00.134Z,14.70
2022-09-25T03:54:29.270Z,14.70
2022-09-25T03:56:56.127Z,14.70
2022-09-25T03:59:22.950Z,14.70
2022-09-25T04:01:49.841Z,14.60
2022-09-25T04:04:19.234Z,14.60
2022-09-25T04:06:46.189Z,14.60
2022-09-25T04:09:13.147Z,14.60
2022-09-25T04:11:42.924Z,14.60
2022-09-25T04:14:12.902Z,14.60
2022-09-25T04:16:40.325Z,14.60
2022-09-25T04:19:10.073Z,14.50
2022-09-25T04:21:39.522Z,14.50
2022-09-25T04:24:25.206Z,14.50
2022-09-25T04:26:54.431Z,14.50
2022-09-25T04:29:24.817Z,14.50
2022-09-25T04:32:11.603Z,14.40
2022-09-25T04:34:38.470Z,14.40
2022-09-25T04:37:07.899Z,14.40
2022-09-25T04:39:36.968Z,14.40
2022-09-25T04:42:04.046Z,14.30
2022-09-25T04:44:35.510Z,14.30
2022-09-25T04:47:07.429Z,14.30
2022-09-25T04:49:34.383Z,14.30
2022-09-25T04:52:01.525Z,14.20
2022-09-25T04:54:28.387Z,14.30
2022-09-25T04:56:55.291Z,14.20
2022-09-25T04:59:22.173Z,14.20
2022-09-25T05:01:56.442Z,14.30
2022-09-25T05:04:23.693Z,14.20
2022-09-25T05:06:51.545Z,14.20
2022-09-25T05:09:18.405Z,14.30
2022-09-25T05:11:47.323Z,14.30
2022-09-25T05:14:14.226Z,14.30
2022-09-25T05:16:41.216Z,14.30
2022-09-25T05:19:08.265Z,14.30
2022-09-25T05:21:37.319Z,14.30
2022-09-25T05:24:08.487Z,14.30
2022-09-25T05:26:38.305Z,14.30
2022-09-25T05:29:10.970Z,14.30
2022-09-25T05:31:42.622Z,14.30
2022-09-25T05:34:12.330Z,14.30
2022-09-25T05:36:39.372Z,14.30
2022-09-25T05:39:08.829Z,14.30
2022-09-25T05:41:38.018Z,14.30
2022-09-25T05:44:09.660Z,14.10
2022-09-25T05:46:37.248Z,14.20
2022-09-25T05:49:07.258Z,14.20
2022-09-25T05:51:34.210Z,14.30
2022-09-25T05:54:03.548Z,14.30
2022-09-25T05:56:30.809Z,14.20
2022-09-25T05:58:58.723Z,14.30
2022-09-25T06:01:26.157Z,14.30
2022-09-25T06:03:57.677Z,14.30
2022-09-25T06:06:27.465Z,14.30
2022-09-25T06:08:57.822Z,14.30
2022-09-25T06:11:24.693Z,14.30
2022-09-25T06:13:54.727Z,14.30
2022-09-25T06:16:21.819Z,14.30
2022-09-25T06:18:48.750Z,14.20
2022-09-25T06:21:15.695Z,14.30
2022-09-25T06:23:48.741Z,14.30
2022-09-25T06:26:18.126Z,14.30
2022-09-25T06:28:45.067Z,14.30
2022-09-25T06:31:14.304Z,14.30
2022-09-25T06:33:46.136Z,14.30
2022-09-25T06:36:12.967Z,14.30
2022-09-25T06:38:39.832Z,14.30
2022-09-25T06:41:09.248Z,14.30
2022-09-25T06:43:36.805Z,14.30
2022-09-25T06:46:04.261Z,14.30
2022-09-25T06:48:31.591Z,14.30
2022-09-25T06:51:00.739Z,14.30
2022-09-25T06:53:27.679Z,14.30
2022-09-25T06:55:58.917Z,14.30
2022-09-25T06:58:27.290Z,14.40
2022-09-25T07:00:56.363Z,14.30
2022-09-25T07:03:42.466Z,14.40
2022-09-25T07:06:15.044Z,14.40
2022-09-25T07:08:43.842Z,14.40
2022-09-25T07:11:17.232Z,14.50
2022-09-25T07:13:44.992Z,14.50
2022-09-25T07:16:20.534Z,14.50
2022-09-25T07:18:47.792Z,14.50
2022-09-25T07:21:18.073Z,14.60
2022-09-25T07:23:50.038Z,14.60
2022-09-25T07:26:22.601Z,14.70
2022-09-25T07:29:00.242Z,14.70
2022-09-25T07:31:34.870Z,14.80
2022-09-25T07:34:12.862Z,14.80
2022-09-25T07:36:42.587Z,14.80
2022-09-25T07:39:17.527Z,14.90
2022-09-25T07:41:47.873Z,15.00
2022-09-25T07:44:28.424Z,15.10
2022-09-25T07:46:59.384Z,15.10
2022-09-25T07:49:26.336Z,15.20
2022-09-25T07:51:53.492Z,15.30
2022-09-25T07:54:24.992Z,15.40
2022-09-25T07:56:56.710Z,15.50
2022-09-25T07:59:24.012Z,15.40
2022-09-25T08:01:57.989Z,15.60
2022-09-25T08:04:25.129Z,15.70
2022-09-25T08:06:54.297Z,15.80
2022-09-25T08:09:24.190Z,15.90
2022-09-25T08:11:57.134Z,16.00
2022-09-25T08:14:41.776Z,16.00
2022-09-25T08:17:11.316Z,16.10
2022-09-25T08:19:38.366Z,16.10
2022-09-25T08:22:05.333Z,16.20
2022-09-25T08:24:35.146Z,16.30
2022-09-25T08:27:04.172Z,16.30
2022-09-25T08:29:33.681Z,16.40
2022-09-25T08:32:03.487Z,16.40
2022-09-25T08:34:46.495Z,16.50
2022-09-25T08:37:13.644Z,16.50
2022-09-25T08:39:43.346Z,16.60
2022-09-25T08:42:26.236Z,16.60
2022-09-25T08:45:21.590Z,16.60
2022-09-25T08:48:11.212Z,16.60
2022-09-25T08:50:38.550Z,16.70
2022-09-25T08:53:16.074Z,16.70
2022-09-25T08:56:04.306Z,16.80
2022-09-25T08:58:41.072Z,16.80
2022-09-25T09:01:13.802Z,16.80
2022-09-25T09:04:07.531Z,16.90
2022-09-25T09:06:37.452Z,16.90
2022-09-25T09:09:15.650Z,17.00
2022-09-25T09:12:04.394Z,17.10
2022-09-25T09:14:38.572Z,17.20
2022-09-25T09:17:18.126Z,17.20
2022-09-25T09:19:49.212Z,17.30
2022-09-25T09:22:32.588Z,17.40
2022-09-25T09:25:15.011Z,17.50
2022-09-25T09:27:53.728Z,17.50
2022-09-25T09:30:34.457Z,17.70
2022-09-25T09:33:39.172Z,17.70
2022-09-25T09:36:18.567Z,17.80
2022-09-25T09:39:38.579Z,17.90
2022-09-25T09:42:25.875Z,17.90
2022-09-25T09:45:03.296Z,18.00
2022-09-25T09:47:57.439Z,18.10
2022-09-25T09:50:52.792Z,18.20
2022-09-25T09:53:46.746Z,18.30
2022-09-25T09:56:26.141Z,18.30
2022-09-25T09:59:14.343Z,18.40
2022-09-25T10:01:45.201Z,18.50
2022-09-25T10:04:18.668Z,18.60
2022-09-25T10:06:53.963Z,18.70
2022-09-25T10:09:25.966Z,18.90
2022-09-25T10:12:29.083Z,19.00
2022-09-25T10:14:59.367Z,19.10
2022-09-25T10:17:31.688Z,19.20
2022-09-25T10:20:04.846Z,19.30
2022-09-25T10:22:41.009Z,19.40
2022-09-25T10:25:08.715Z,19.40
2022-09-25T10:27:48.857Z,19.50
2022-09-25T10:30:21.919Z,19.60
2022-09-25T10:33:03.057Z,19.70
2022-09-25T10:35:43.742Z,19.70
2022-09-25T10:38:53.508Z,19.80
2022-09-25T10:41:26.123Z,19.80
2022-09-25T10:44:04.065Z,20.00
2022-09-25T10:46:55.812Z,20.00
2022-09-25T10:49:45.901Z,20.00
2022-09-25T10:52:19.335Z,19.80
2022-09-25T10:54:46.549Z,20.00
2022-09-25T10:57:21.027Z,20.00
2022-09-25T10:59:52.870Z,20.00
2022-09-25T11:02:46.590Z,20.10
2022-09-25T11:05:22.161Z,20.20
2022-09-25T11:07:58.151Z,20.40
2022-09-25T11:10:34.163Z,20.60
2022-09-25T11:13:09.140Z,20.70
2022-09-25T11:15:39.292Z,20.80
2022-09-25T11:18:35.944Z,20.90
2022-09-25T11:21:05.670Z,21.00
2022-09-25T11:23:43.470Z,21.00
2022-09-25T11:26:17.825Z,21.00
2022-09-25T11:29:30.551Z,21.10
2022-09-25T11:32:26.545Z,21.00
2022-09-25T11:35:25.317Z,21.10
2022-09-25T11:38:03.896Z,21.10
2022-09-25T11:41:01.354Z,21.10
2022-09-25T11:43:58.535Z,21.10
2022-09-25T11:46:41.934Z,21.10
2022-09-25T11:49:21.049Z,21.10
2022-09-25T11:52:18.526Z,21.10
2022-09-25T11:55:11.500Z,21.00
2022-09-25T11:57:58.746Z,20.90
2022-09-25T12:01:01.191Z,20.80
2022-09-25T12:03:40.943Z,20.80
2022-09-25T12:06:53.357Z,20.70
2022-09-25T12:09:58.562Z,20.60
2022-09-25T12:12:45.807Z,20.50
2022-09-25T12:15:28.538Z,20.40
2022-09-25T12:18:42.475Z,20.30
2022-09-25T12:21:09.362Z,20.20
2022-09-25T12:24:01.715Z,20.20
2022-09-25T12:26:52.603Z,20.20
2022-09-25T12:29:51.929Z,20.20
2022-09-25T12:32:59.699Z,20.20
2022-09-25T12:35:53.886Z,20.10
2022-09-25T12:38:29.366Z,20.10
2022-09-25T12:41:29.995Z,20.10
2022-09-25T12:44:05.074Z,20.00
2022-09-25T12:47:13.879Z,20.00
2022-09-25T12:50:09.765Z,19.90
2022-09-25T12:52:43.573Z,19.80
2022-09-25T12:55:24.122Z,19.80
2022-09-25T12:58:32.074Z,19.70
2022-09-25T13:01:29.921Z,19.60
2022-09-25T13:04:51.056Z,19.60
2022-09-25T13:07:56.067Z,19.50
2022-09-25T13:10:53.460Z,19.40
2022-09-25T13:13:31.658Z,19.40
2022-09-25T13:16:01.513Z,19.30
2022-09-25T13:18:34.043Z,19.30
2022-09-25T13:21:22.655Z,19.20
2022-09-25T13:23:53.049Z,19.10
2022-09-25T13:26:26.830Z,19.10
2022-09-25T13:29:02.944Z,19.10
2022-09-25T13:31:37.082Z,19.00
2022-09-25T13:34:14.380Z,19.00
2022-09-25T13:36:47.470Z,18.90
2022-09-25T13:39:55.120Z,18.90
2022-09-25T13:42:31.043Z,18.80
2022-09-25T13:45:07.614Z,18.70
2022-09-25T13:47:55.526Z,18.70
2022-09-25T13:50:38.595Z,18.70
2022-09-25T13:53:21.772Z,18.70
2022-09-25T13:55:57.873Z,18.70
2022-09-25T13:58:28.672Z,18.70
2022-09-25T14:00:59.050Z,18.70
2022-09-25T14:03:50.027Z,18.70
2022-09-25T14:06:34.541Z,18.60
2022-09-25T14:09:18.590Z,18.60
2022-09-25T14:12:17.658Z,18.70
2022-09-25T14:14:55.712Z,18.60
2022-09-25T14:17:28.059Z,18.60
2022-09-25T14:19:59.070Z,18.60
2022-09-25T14:22:51.679Z,18.60
2022-09-25T14:25:40.670Z,18.60
2022-09-25T14:28:33.251Z,18.50
2022-09-25T14:31:39.929Z,18.50
2022-09-25T14:34:46.848Z,18.50
2022-09-25T14:37:33.783Z,18.50
2022-09-25T14:40:21.889Z,18.50
2022-09-25T14:43:11.251Z,18.50
2022-09-25T14:45:56.503Z,18.50
2022-09-25T14:48:31.379Z,18.50
2022-09-25T14:51:06.636Z,18.60
2022-09-25T14:53:43.446Z,18.60
2022-09-25T14:56:14.788Z,18.60
2022-09-25T14:58:47.350Z,18.70
2022-09-25T15:01:17.846Z,18.70
2022-09-25T15:03:51.136Z,18.70
2022-09-25T15:06:33.997Z,18.70
2022-09-25T15:09:04.407Z,18.70
2022-09-25T15:11:43.995Z,18.70
2022-09-25T15:14:20.681Z,18.70
2022-09-25T15:17:07.888Z,18.70
2022-09-25T15:19:41.814Z,18.70
2022-09-25T15:22:35.719Z,18.60
2022-09-25T15:25:06.285Z,18.60
2022-09-25T15:27:42.810Z,18.60
2022-09-25T15:30:19.359Z,18.60
2022-09-25T15:32:58.423Z,18.60
2022-09-25T15:35:29.419Z,18.60
2022-09-25T15:38:14.294Z,18.50
2022-09-25T15:40:43.768Z,18.40
2022-09-25T15:43:18.408Z,18.40
2022-09-25T15:46:07.754Z,18.40
2022-09-25T15:48:57.681Z,18.40
2022-09-25T15:51:34.033Z,18.30
2022-09-25T15:54:32.599Z,18.40
2022-09-25T15:57:06.655Z,18.40
2022-09-25T16:00:11.608Z,18.30
2022-09-25T16:03:12.277Z,18.30
2022-09-25T16:05:47.873Z,18.30
2022-09-25T16:08:17.899Z,18.30
2022-09-25T16:10:50.322Z,18.30
2022-09-25T16:13:28.310Z,18.30
2022-09-25T16:15:56.414Z,18.30
2022-09-25T16:18:41.080Z,18.30
2022-09-25T16:21:15.271Z,18.30
2022-09-25T16:23:43.074Z,18.20
2022-09-25T16:26:25.565Z,18.20
2022-09-25T16:29:12.009Z,18.10
2022-09-25T16:31:41.986Z,18.10
2022-09-25T16:34:34.171Z,18.10
2022-09-25T16:37:08.022Z,18.10
2022-09-25T16:39:37.171Z,18.00
2022-09-25T16:42:30.797Z,18.00
2022-09-25T16:45:34.096Z,17.90
2022-09-25T16:48:43.107Z,17.90
2022-09-25T16:51:21.702Z,17.80
2022-09-25T16:53:53.856Z,17.80
2022-09-25T16:56:32.015Z,17.80
2022-09-25T16:58:59.300Z,17.80
2022-09-25T17:02:04.965Z,17.80
2022-09-25T17:04:35.889Z,17.70
2022-09-25T17:07:30.716Z,17.70
2022-09-25T17:10:07.717Z,17.60
2022-09-25T17:12:37.121Z,17.60
2022-09-25T17:15:07.290Z,17.60
2022-09-25T17:17:34.144Z,17.60
2022-09-25T17:20:17.797Z,17.60
2022-09-25T17:22:46.979Z,17.60
2022-09-25T17:25:52.246Z,17.60
2022-09-25T17:28:21.258Z,17.60
2022-09-25T17:30:48.169Z,17.50
2022-09-25T17:33:20.482Z,17.50
2022-09-25T17:36:11.435Z,17.50
2022-09-25T17:38:38.578Z,17.50
2022-09-25T17:41:38.545Z,17.50
2022-09-25T17:44:15.465Z,17.50
2022-09-25T17:46:45.030Z,17.40
2022-09-25T17:49:25.236Z,17.40
2022-09-25T17:51:55.191Z,17.40
2022-09-25T17:54:42.069Z,17.40
2022-09-25T17:57:11.956Z,17.40
2022-09-25T17:59:38.836Z,17.40
2022-09-25T18:02:16.135Z,17.30
2022-09-25T18:04:44.818Z,17.30
2022-09-25T18:07:15.250Z,17.30
2022-09-25T18:09:42.284Z,17.30
2022-09-25T18:12:09.269Z,17.30
2022-09-25T18:14:42.414Z,17.20
2022-09-25T18:17:09.625Z,17.20
2022-09-25T18:20:03.971Z,17.20
2022-09-25T18:22:35.833Z,17.20
2022-09-25T18:27:49.629Z,17.20
2022-09-25T18:30:25.500Z,17.10
2022-09-25T18:33:05.067Z,17.10
2022-09-25T18:35:32.778Z,17.10
2022-09-25T18:38:04.154Z,17.10
2022-09-25T18:40:31.167Z,17.10
2022-09-25T18:43:06.895Z,17.00
2022-09-25T18:45:44.393Z,17.00
2022-09-25T18:48:11.491Z,17.00
2022-09-25T18:50:38.759Z,16.90
2022-09-25T18:53:23.908Z,16.90
2022-09-25T18:56:02.748Z,16.90
2022-09-25T18:58:30.390Z,16.80
2022-09-25T19:01:08.175Z,16.80
2022-09-25T19:03:58.466Z,16.80
2022-09-25T19:06:40.435Z,16.70
2022-09-25T19:09:16.157Z,16.70
2022-09-25T19:17:32.443Z,16.70
2022-09-25T19:20:08.516Z,16.60
2022-09-25T19:22:45.577Z,16.60
2022-09-25T19:25:12.523Z,16.60
2022-09-25T19:27:39.634Z,16.50
2022-09-25T19:30:15.814Z,16.50
2022-09-25T19:33:07.375Z,16.50
2022-09-25T19:35:42.892Z,16.50
2022-09-25T19:38:17.261Z,16.40
2022-09-25T19:40:48.706Z,16.40
2022-09-25T19:43:19.486Z,16.40
2022-09-25T19:45:56.688Z,16.40
2022-09-25T19:48:29.114Z,16.40
2022-09-25T19:50:56.070Z,16.40
2022-09-25T19:53:29.000Z,16.40
2022-09-25T19:56:22.122Z,16.40
2022-09-25T19:59:12.080Z,16.40
2022-09-25T20:01:39.423Z,16.30
2022-09-25T20:04:18.709Z,16.30
2022-09-25T20:09:47.481Z,16.30
2022-09-25T20:12:23.508Z,16.30
2022-09-25T20:15:15.480Z,16.30
2022-09-25T20:17:51.450Z,16.20
2022-09-25T20:23:25.511Z,16.30
2022-09-25T20:29:30.311Z,16.30
2022-09-25T20:32:00.630Z,16.30
2022-09-25T20:35:03.249Z,16.40
2022-09-25T20:37:39.636Z,16.30
2022-09-25T20:40:21.992Z,16.30
2022-09-25T20:42:52.577Z,16.40
2022-09-25T20:45:39.541Z,16.40
2022-09-25T20:51:50.360Z,16.40
2022-09-25T20:54:26.730Z,16.40
2022-09-25T20:56:56.281Z,16.40
2022-09-25T20:59:46.076Z,16.40
2022-09-25T21:02:14.206Z,16.40
2022-09-25T21:04:44.986Z,16.40
2022-09-25T21:07:16.587Z,16.30
2022-09-25T21:09:47.245Z,16.30
2022-09-25T21:12:32.674Z,16.30
2022-09-25T21:15:21.669Z,16.30
2022-09-25T21:20:35.753Z,16.20
2022-09-25T21:23:08.174Z,16.20
2022-09-25T21:25:35.012Z,16.20
2022-09-25T21:28:06.519Z,16.10
2022-09-25T21:30:33.529Z,16.10
2022-09-25T21:33:00.456Z,15.90
2022-09-25T21:35:29.532Z,16.10
2022-09-25T21:37:56.476Z,16.10
2022-09-25T21:40:26.198Z,16.00
2022-09-25T21:42:53.151Z,16.00
2022-09-25T21:45:20.201Z,16.00
2022-09-25T21:47:52.444Z,16.00
2022-09-25T21:50:19.451Z,15.90
2022-09-25T21:52:51.075Z,15.90
2022-09-25T21:55:20.149Z,15.90
2022-09-25T21:57:47.167Z,15.70
2022-09-25T22:00:16.363Z,15.90
2022-09-25T22:02:43.831Z,15.90
2022-09-25T22:05:11.925Z,15.90
2022-09-25T22:07:38.929Z,16.00
2022-09-25T22:10:06.801Z,16.00
2022-09-25T22:12:33.805Z,16.00
2022-09-25T22:15:01.534Z,16.00
2022-09-25T22:17:30.977Z,16.00
2022-09-25T22:20:00.523Z,16.00
2022-09-25T22:22:31.419Z,16.00
2022-09-25T22:25:00.866Z,16.00
2022-09-25T22:27:28.102Z,16.00
2022-09-25T22:29:55.093Z,16.00
2022-09-25T22:32:22.097Z,16.00
2022-09-25T22:34:49.119Z,16.00
2022-09-25T22:37:18.383Z,16.00
2022-09-25T22:39:45.416Z,16.00
2022-09-25T22:42:12.430Z,15.90
2022-09-25T22:44:39.392Z,15.90
2022-09-25T22:47:06.395Z,15.90
2022-09-25T22:49:33.478Z,16.00
2022-09-25T22:52:05.316Z,16.00
2022-09-25T22:54:32.273Z,16.00
2022-09-25T22:57:01.731Z,16.00
2022-09-25T22:59:28.920Z,16.00
2022-09-25T23:01:57.905Z,16.00
2022-09-25T23:04:25.677Z,16.00
2022-09-25T23:06:54.447Z,16.00
2022-09-25T23:09:27.562Z,16.00
2022-09-25T23:11:56.747Z,16.00
2022-09-25T23:14:29.272Z,15.90
2022-09-25T23:16:57.066Z,15.90
2022-09-25T23:19:25.417Z,15.90
2022-09-25T23:21:58.023Z,15.90
2022-09-25T23:24:25.392Z,15.90
2022-09-25T23:26:52.946Z,16.00
2022-09-25T23:29:24.294Z,15.90
2022-09-25T23:31:52.088Z,15.90
2022-09-25T23:34:21.991Z,15.90
2022-09-25T23:36:48.800Z,16.00
2022-09-25T23:39:19.654Z,16.00
2022-09-25T23:41:47.449Z,15.90
2022-09-25T23:44:14.453Z,15.90
2022-09-25T23:46:43.132Z,15.90
2022-09-25T23:49:12.737Z,15.90
2022-09-25T23:51:42.198Z,15.90
2022-09-25T23:54:10.372Z,15.90
2022-09-25T23:56:41.067Z,15.90
2022-09-25T23:59:12.262Z,15.90
